createdAt,value
2018-09-20T00:00:20.295Z,101047.09
2018-09-20T00:03:24.393Z,101044.61
2018-09-20T00:06:28.570Z,101046.38
2018-09-20T00:09:32.682Z,101042.56
2018-09-20T00:12:36.623Z,101040.09
2018-09-20T00:15:40.563Z,101030.63
2018-09-20T00:18:44.476Z,101036.45
2018-09-20T00:21:48.385Z,101036.45
2018-09-20T00:24:52.335Z,101036.78
2018-09-20T00:27:56.473Z,101036.55
2018-09-20T00:31:00.405Z,101033.00
2018-09-20T00:34:04.666Z,101038.80
2018-09-20T00:37:08.574Z,101039.63
2018-09-20T00:40:12.694Z,101038.64
2018-09-20T00:43:16.980Z,101038.30
2018-09-20T00:46:24.170Z,101034.04
2018-09-20T00:49:28.085Z,101034.63
2018-09-20T00:52:32.015Z,101040.06
2018-09-20T00:55:35.976Z,101034.28
2018-09-20T00:58:39.902Z,101034.63
2018-09-20T01:01:44.164Z,101039.00
2018-09-20T01:04:48.314Z,101036.05
2018-09-20T01:07:52.237Z,101036.05
2018-09-20T01:10:56.334Z,101037.11
2018-09-20T01:14:00.477Z,101041.25
2018-09-20T01:17:04.862Z,101038.53
2018-09-20T01:20:08.813Z,101033.54
2018-09-20T01:23:12.734Z,101037.55
2018-09-20T01:26:17.019Z,101039.45
2018-09-20T01:29:20.929Z,101038.50
2018-09-20T01:32:25.078Z,101029.14
2018-09-20T01:35:29.014Z,101036.70
2018-09-20T01:38:33.112Z,101029.13
2018-09-20T01:41:37.041Z,101033.36
2018-09-20T01:44:41.123Z,101032.17
2018-09-20T01:47:45.123Z,101035.83
2018-09-20T01:50:49.035Z,101032.05
2018-09-20T01:53:52.942Z,101034.30
2018-09-20T01:56:56.862Z,101031.70
2018-09-20T02:00:00.854Z,101029.92
2018-09-20T02:03:05.082Z,101024.02
2018-09-20T02:06:08.995Z,101030.04
2018-09-20T02:09:13.086Z,101026.26
2018-09-20T02:12:17.011Z,101024.02
2018-09-20T02:15:20.924Z,101029.45
2018-09-20T02:18:24.847Z,101031.34
2018-09-20T02:21:28.837Z,101026.73
2018-09-20T02:24:32.950Z,101029.80
2018-09-20T02:27:36.858Z,101033.42
2018-09-20T02:30:40.767Z,101031.77
2018-09-20T02:33:44.670Z,101033.55
2018-09-20T02:36:48.586Z,101031.53
2018-09-20T02:39:52.486Z,101030.47
2018-09-20T02:42:56.417Z,101032.36
2018-09-20T02:46:00.318Z,101027.00
2018-09-20T02:49:04.584Z,101032.05
2018-09-20T02:52:08.729Z,101038.06
2018-09-20T02:55:12.647Z,101035.78
2018-09-20T02:58:16.568Z,101040.96
2018-09-20T03:01:20.668Z,101035.88
2018-09-20T03:04:24.571Z,101031.75
2018-09-20T03:07:28.482Z,101037.25
2018-09-20T03:10:32.381Z,101037.59
2018-09-20T03:13:36.491Z,101035.58
2018-09-20T03:16:40.423Z,101032.82
2018-09-20T03:19:44.327Z,101027.38
2018-09-20T03:22:48.573Z,101024.66
2018-09-20T03:25:52.478Z,101026.63
2018-09-20T03:28:56.392Z,101022.12
2018-09-20T03:32:00.803Z,101020.31
2018-09-20T03:35:05.055Z,101019.95
2018-09-20T03:38:09.149Z,101024.66
2018-09-20T03:41:13.063Z,101026.17
2018-09-20T03:44:16.963Z,101025.89
2018-09-20T03:47:20.884Z,101032.60
2018-09-20T03:50:24.831Z,101036.14
2018-09-20T03:53:28.804Z,101030.34
2018-09-20T03:56:32.782Z,101034.53
2018-09-20T03:59:36.678Z,101030.86
2018-09-20T04:02:40.598Z,101033.09
2018-09-20T04:05:44.536Z,101027.55
2018-09-20T04:08:48.630Z,101029.89
2018-09-20T04:11:52.543Z,101028.68
2018-09-20T04:14:56.560Z,101025.84
2018-09-20T04:18:00.816Z,101027.46
2018-09-20T04:21:04.995Z,101031.47
2018-09-20T04:24:08.923Z,101034.24
2018-09-20T04:27:12.829Z,101039.65
2018-09-20T04:30:16.917Z,101036.33
2018-09-20T04:33:20.997Z,101049.38
2018-09-20T04:36:25.114Z,101045.23
2018-09-20T04:39:29.095Z,101046.42
2018-09-20T04:42:33.024Z,101039.22
2018-09-20T04:45:36.986Z,101047.00
2018-09-20T04:48:40.941Z,101046.53
2018-09-20T04:51:45.517Z,101045.53
2018-09-20T04:54:49.467Z,101049.89
2018-09-20T04:57:53.370Z,101049.20
2018-09-20T05:00:57.622Z,101050.25
2018-09-20T05:04:01.648Z,101050.61
2018-09-20T05:07:05.584Z,101049.42
2018-09-20T05:10:09.834Z,101045.64
2018-09-20T05:13:14.067Z,101056.95
2018-09-20T05:16:18.053Z,101048.09
2018-09-20T05:19:21.967Z,101043.63
2018-09-20T05:22:25.899Z,101041.71
2018-09-20T05:25:29.833Z,101046.43
2018-09-20T05:28:33.764Z,101042.83
2018-09-20T05:31:37.719Z,101051.04
2018-09-20T05:34:41.643Z,101053.27
2018-09-20T05:37:45.590Z,101064.58
2018-09-20T05:40:49.513Z,101062.34
2018-09-20T05:43:53.551Z,101064.00
2018-09-20T05:46:57.462Z,101068.83
2018-09-20T05:50:01.377Z,101069.19
2018-09-20T05:53:05.327Z,101076.50
2018-09-20T05:56:09.246Z,101073.80
2018-09-20T05:59:13.330Z,101072.39
2018-09-20T06:02:17.426Z,101075.70
2018-09-20T06:05:21.343Z,101073.12
2018-09-20T06:08:25.254Z,101070.05
2018-09-20T06:11:29.499Z,101068.19
2018-09-20T06:14:33.434Z,101074.37
2018-09-20T06:17:37.340Z,101072.72
2018-09-20T06:20:41.269Z,101076.06
2018-09-20T06:23:45.207Z,101076.31
2018-09-20T06:26:49.121Z,101071.37
2018-09-20T06:29:53.054Z,101075.08
2018-09-20T06:32:56.972Z,101074.04
2018-09-20T06:36:01.119Z,101077.71
2018-09-20T06:39:08.575Z,101067.59
2018-09-20T06:42:12.494Z,101072.84
2018-09-20T06:45:16.407Z,101071.22
2018-09-20T06:48:20.333Z,101058.77
2018-09-20T06:51:24.282Z,101062.14
2018-09-20T06:54:28.213Z,101061.92
2018-09-20T06:57:36.003Z,101070.20
2018-09-20T07:00:39.917Z,101072.30
2018-09-20T07:03:44.034Z,101074.00
2018-09-20T07:06:48.057Z,101063.67
2018-09-20T07:09:51.968Z,101064.09
2018-09-20T07:12:55.911Z,101064.27
2018-09-20T07:15:59.827Z,101066.39
2018-09-20T07:19:04.088Z,101075.30
2018-09-20T07:22:08.171Z,101071.14
2018-09-20T07:25:12.114Z,101072.09
2018-09-20T07:28:16.250Z,101072.80
2018-09-20T07:31:20.214Z,101081.66
2018-09-20T07:34:24.127Z,101074.61
2018-09-20T07:37:28.373Z,101074.97
2018-09-20T07:40:32.297Z,101078.05
2018-09-20T07:43:36.208Z,101079.30
2018-09-20T07:46:40.319Z,101077.73
2018-09-20T07:49:44.433Z,101073.86
2018-09-20T07:52:48.699Z,101078.77
2018-09-20T07:55:52.662Z,101077.58
2018-09-20T07:58:56.936Z,101078.53
2018-09-20T08:02:01.099Z,101067.18
2018-09-20T08:05:05.179Z,101070.13
2018-09-20T08:08:09.153Z,101064.25
2018-09-20T08:11:13.403Z,101068.50
2018-09-20T08:14:17.674Z,101068.14
2018-09-20T08:17:21.931Z,101062.23
2018-09-20T08:20:25.982Z,101064.17
2018-09-20T08:23:30.057Z,101070.79
2018-09-20T08:26:33.985Z,101073.87
2018-09-20T08:29:37.911Z,101074.81
2018-09-20T08:32:41.947Z,101071.17
2018-09-20T08:35:45.917Z,101068.80
2018-09-20T08:38:49.847Z,101076.84
2018-09-20T08:41:53.755Z,101079.66
2018-09-20T08:44:57.671Z,101079.55
2018-09-20T08:48:01.789Z,101075.27
2018-09-20T08:51:06.101Z,101071.02
2018-09-20T08:54:10.196Z,101069.34
2018-09-20T08:57:14.230Z,101068.61
2018-09-20T09:00:18.340Z,101061.15
2018-09-20T09:03:22.262Z,101059.97
2018-09-20T09:06:26.178Z,101056.89
2018-09-20T09:09:30.094Z,101063.97
2018-09-20T09:12:34.342Z,101059.77
2018-09-20T09:15:38.269Z,101056.29
2018-09-20T09:18:42.174Z,101056.70
2018-09-20T09:21:46.090Z,101053.63
2018-09-20T09:24:50.061Z,101054.75
2018-09-20T09:27:54.001Z,101054.55
2018-09-20T09:30:57.927Z,101061.20
2018-09-20T09:34:02.212Z,101049.10
2018-09-20T09:37:06.335Z,101041.41
2018-09-20T09:40:10.623Z,101040.11
2018-09-20T09:43:14.551Z,101042.38
2018-09-20T09:46:18.587Z,101043.89
2018-09-20T09:49:22.522Z,101041.52
2018-09-20T09:52:26.499Z,101034.71
2018-09-20T09:55:30.476Z,101027.18
2018-09-20T09:58:34.387Z,101022.01
2018-09-20T10:01:38.372Z,101026.69
2018-09-20T10:04:42.314Z,101021.55
2018-09-20T10:07:46.278Z,101029.78
2018-09-20T10:10:50.219Z,101016.92
2018-09-20T10:13:54.226Z,101017.00
2018-09-20T10:16:58.297Z,101018.17
2018-09-20T10:20:02.269Z,101008.06
2018-09-20T10:23:06.322Z,101007.44
2018-09-20T10:26:10.538Z,101003.67
2018-09-20T10:29:14.759Z,101006.05
2018-09-20T10:32:18.707Z,100998.50
2018-09-20T10:35:22.633Z,100992.78
2018-09-20T10:38:26.570Z,100984.94
2018-09-20T10:41:30.847Z,100981.74
2018-09-20T10:44:34.759Z,100977.22
2018-09-20T10:47:38.705Z,100979.41
2018-09-20T10:50:42.627Z,100976.98
2018-09-20T10:53:46.574Z,100980.56
2018-09-20T10:56:50.527Z,100973.51
2018-09-20T10:59:54.501Z,100971.23
2018-09-20T11:02:58.671Z,100972.20
2018-09-20T11:06:02.809Z,100977.77
2018-09-20T11:09:08.726Z,100965.83
2018-09-20T11:12:12.647Z,100960.27
2018-09-20T11:15:16.791Z,100962.77
2018-09-20T11:18:20.755Z,100962.92
2018-09-20T11:21:24.684Z,100959.83
2018-09-20T11:24:28.630Z,100950.89
2018-09-20T11:27:32.563Z,100949.29
2018-09-20T11:30:36.782Z,100943.67
2018-09-20T11:33:40.749Z,100945.21
2018-09-20T11:36:44.651Z,100939.34
2018-09-20T11:39:48.798Z,100944.19
2018-09-20T11:42:52.894Z,100944.20
2018-09-20T11:45:56.859Z,100948.20
2018-09-20T11:49:00.775Z,100946.30
2018-09-20T11:52:04.726Z,100946.78
2018-09-20T11:55:08.666Z,100950.41
2018-09-20T11:58:12.614Z,100941.06
2018-09-20T12:01:16.563Z,100929.13
2018-09-20T12:04:20.653Z,100936.02
2018-09-20T12:07:24.687Z,100944.39
2018-09-20T12:10:28.639Z,100925.66
2018-09-20T12:13:32.554Z,100928.20
2018-09-20T12:16:36.716Z,100926.41
2018-09-20T12:19:41.175Z,100928.24
2018-09-20T12:22:45.121Z,100924.80
2018-09-20T12:25:49.058Z,100923.69
2018-09-20T12:28:53.207Z,100926.78
2018-09-20T12:31:57.192Z,100924.58
2018-09-20T12:35:01.226Z,100913.81
2018-09-20T12:38:05.206Z,100915.86
2018-09-20T12:41:09.340Z,100914.59
2018-09-20T12:44:13.547Z,100909.02
2018-09-20T12:47:17.831Z,100906.70
2018-09-20T12:50:22.162Z,100906.41
2018-09-20T12:53:26.438Z,100902.55
2018-09-20T12:56:30.927Z,100905.22
2018-09-20T12:59:34.874Z,100904.45
2018-09-20T13:02:39.042Z,100899.70
2018-09-20T13:05:43.599Z,100903.59
2018-09-20T13:08:47.600Z,100898.39
2018-09-20T13:11:51.881Z,100891.73
2018-09-20T13:14:55.839Z,100891.36
2018-09-20T13:17:59.793Z,100892.10
2018-09-20T13:21:03.751Z,100893.41
2018-09-20T13:24:07.707Z,100891.80
2018-09-20T13:27:12.165Z,100887.56
2018-09-20T13:30:16.327Z,100886.05
2018-09-20T13:33:20.274Z,100884.70
2018-09-20T13:36:24.799Z,100885.83
2018-09-20T13:39:29.065Z,100878.24
2018-09-20T13:42:33.022Z,100874.95
2018-09-20T13:45:37.348Z,100867.56
2018-09-20T13:48:41.638Z,100868.36
2018-09-20T13:51:46.570Z,100857.06
2018-09-20T13:54:50.520Z,100849.48
2018-09-20T13:57:54.511Z,100839.21
2018-09-20T14:00:58.438Z,100843.14
2018-09-20T14:04:02.420Z,100833.02
2018-09-20T14:07:06.772Z,100838.43
2018-09-20T14:10:11.030Z,100834.50
2018-09-20T14:13:15.028Z,100826.87
2018-09-20T14:16:18.970Z,100824.25
2018-09-20T14:19:22.901Z,100821.69
2018-09-20T14:22:26.840Z,100822.80
2018-09-20T14:25:30.954Z,100814.34
2018-09-20T14:28:34.895Z,100816.04
2018-09-20T14:31:38.842Z,100814.56
2018-09-20T14:34:42.779Z,100813.91
2018-09-20T14:37:46.784Z,100808.02
2018-09-20T14:40:50.919Z,100814.25
2018-09-20T14:43:55.102Z,100818.11
2018-09-20T14:46:59.032Z,100814.50
2018-09-20T14:50:03.560Z,100813.02
2018-09-20T14:53:07.842Z,100811.56
2018-09-20T14:56:11.792Z,100803.20
2018-09-20T14:59:15.786Z,100800.14
2018-09-20T15:02:19.997Z,100797.22
2018-09-20T15:05:24.071Z,100802.06
2018-09-20T15:08:28.172Z,100800.70
2018-09-20T15:11:32.102Z,100794.65
2018-09-20T15:14:36.257Z,100794.15
2018-09-20T15:17:40.178Z,100797.22
2018-09-20T15:20:44.119Z,100803.09
2018-09-20T15:23:48.130Z,100803.88
2018-09-20T15:26:52.139Z,100804.50
2018-09-20T15:29:56.160Z,100805.01
2018-09-20T15:33:00.497Z,100811.56
2018-09-20T15:36:04.502Z,100801.73
2018-09-20T15:39:10.854Z,100799.59
2018-09-20T15:42:14.878Z,100802.48
2018-09-20T15:45:19.204Z,100801.98
2018-09-20T15:48:23.519Z,100798.64
2018-09-20T15:51:27.530Z,100788.32
2018-09-20T15:54:31.558Z,100792.08
2018-09-20T15:57:35.568Z,100791.84
2018-09-20T16:00:39.683Z,100786.75
2018-09-20T16:03:43.749Z,100787.55
2018-09-20T16:06:47.731Z,100781.27
2018-09-20T16:09:51.703Z,100779.11
2018-09-20T16:12:55.732Z,100778.63
2018-09-20T16:15:59.955Z,100774.27
2018-09-20T16:19:04.255Z,100772.41
2018-09-20T16:22:08.451Z,100775.99
2018-09-20T16:25:12.860Z,100774.48
2018-09-20T16:28:33.046Z,100769.02
2018-09-20T16:31:55.257Z,100761.92
2018-09-20T16:36:14.186Z,100763.97
2018-09-20T16:39:22.051Z,100755.06
2018-09-20T16:42:29.219Z,100750.28
2018-09-20T16:45:33.211Z,100745.14
2018-09-20T16:48:37.122Z,100750.16
2018-09-20T16:51:41.115Z,100751.07
2018-09-20T16:54:45.812Z,100743.67
2018-09-20T16:57:53.273Z,100752.06
2018-09-20T17:00:57.183Z,100736.91
2018-09-20T17:04:01.203Z,100737.52
2018-09-20T17:07:05.307Z,100734.80
2018-09-20T17:10:09.599Z,100734.98
2018-09-20T17:13:13.986Z,100736.18
2018-09-20T17:16:18.305Z,100738.83
2018-09-20T17:19:22.277Z,100731.39
2018-09-20T17:22:26.215Z,100729.96
2018-09-20T17:25:30.240Z,100728.98
2018-09-20T17:28:34.306Z,100730.51
2018-09-20T17:31:38.285Z,100724.37
2018-09-20T17:34:42.629Z,100722.93
2018-09-20T17:37:47.654Z,100714.97
2018-09-20T17:40:55.896Z,100724.45
2018-09-20T17:44:04.551Z,100723.05
2018-09-20T17:47:08.787Z,100725.70
2018-09-20T17:50:13.053Z,100722.28
2018-09-20T17:53:17.272Z,100718.59
2018-09-20T17:56:21.642Z,100711.98
2018-09-20T17:59:25.593Z,100711.46
2018-09-20T18:02:29.559Z,100708.88
2018-09-20T18:05:33.576Z,100704.87
2018-09-20T18:08:37.506Z,100705.20
2018-09-20T18:11:41.635Z,100706.92
2018-09-20T18:14:47.118Z,100708.89
2018-09-20T18:17:51.152Z,100705.39
2018-09-20T18:20:57.055Z,100705.57
2018-09-20T18:24:01.044Z,100704.68
2018-09-20T18:27:05.694Z,100703.31
2018-09-20T18:30:09.697Z,100699.44
2018-09-20T18:33:14.231Z,100702.94
2018-09-20T18:36:18.176Z,100696.80
2018-09-20T18:39:22.524Z,100691.66
2018-09-20T18:42:26.541Z,100693.81
2018-09-20T18:45:30.656Z,100695.16
2018-09-20T18:48:34.610Z,100690.45
2018-09-20T18:51:41.942Z,100688.73
2018-09-20T18:54:46.130Z,100688.63
2018-09-20T18:57:50.153Z,100686.08
2018-09-20T19:00:54.312Z,100687.76
2018-09-20T19:03:58.613Z,100687.68
2018-09-20T19:07:02.859Z,100685.82
2018-09-20T19:10:07.930Z,100686.88
2018-09-20T19:13:11.969Z,100680.91
2018-09-20T19:16:17.435Z,100682.95
2018-09-20T19:19:21.451Z,100683.66
2018-09-20T19:22:26.959Z,100678.11
2018-09-20T19:25:30.995Z,100670.23
2018-09-20T19:28:35.314Z,100669.53
2018-09-20T19:31:39.365Z,100667.03
2018-09-20T19:34:43.385Z,100661.62
2018-09-20T19:37:47.454Z,100664.56
2018-09-20T19:40:51.445Z,100654.90
2018-09-20T20:58:03.075Z,100575.00
2018-09-20T21:01:10.083Z,100566.73
2018-09-20T21:04:14.877Z,100563.22
2018-09-20T21:07:19.983Z,100555.55
2018-09-20T21:10:25.337Z,100564.78
2018-09-20T21:13:30.212Z,100557.59
2018-09-20T21:16:34.893Z,100551.11
2018-09-20T21:19:39.543Z,100550.41
2018-09-20T21:22:44.333Z,100539.33
2018-09-20T21:25:48.923Z,100540.14
2018-09-20T21:28:53.634Z,100533.44
2018-09-20T21:31:58.439Z,100526.00
2018-09-20T21:35:05.183Z,100515.99
2018-09-20T21:38:09.832Z,100509.16
2018-09-20T21:41:15.414Z,100507.25
2018-09-20T21:44:20.123Z,100493.56
2018-09-20T21:47:25.768Z,100491.19
2018-09-20T21:50:30.444Z,100489.31
2018-09-20T21:53:35.285Z,100486.00
2018-09-20T21:56:39.794Z,100484.56
2018-09-20T21:59:44.514Z,100481.14
2018-09-20T22:02:54.194Z,100474.78
2018-09-20T22:05:58.833Z,100477.37
2018-09-20T22:09:03.602Z,100473.00
2018-09-20T22:12:08.047Z,100471.48
2018-09-20T22:15:16.780Z,100467.25
2018-09-20T22:18:21.580Z,100462.39
2018-09-20T22:21:26.214Z,100456.16
2018-09-20T22:24:30.433Z,100449.80
2018-09-20T22:27:34.662Z,100448.16
2018-09-20T22:30:38.790Z,100441.31
2018-09-20T22:33:42.973Z,100437.65
2018-09-20T22:36:47.145Z,100435.52
2018-09-20T22:39:51.738Z,100439.89
2018-09-20T22:42:55.927Z,100433.67
2018-09-20T22:46:00.414Z,100425.53
2018-09-20T22:49:04.485Z,100428.39
2018-09-20T22:52:08.906Z,100419.66
2018-09-20T22:55:13.054Z,100412.81
2018-09-20T22:58:17.106Z,100402.56
2018-09-20T23:01:21.155Z,100407.41
2018-09-20T23:04:25.445Z,100399.87
2018-09-20T23:07:29.705Z,100392.89
2018-09-20T23:10:33.729Z,100384.28
2018-09-20T23:13:38.114Z,100379.83
2018-09-20T23:16:42.185Z,100370.97
2018-09-20T23:19:46.386Z,100366.86
2018-09-20T23:22:51.033Z,100358.52
2018-09-20T23:25:55.034Z,100348.39
2018-09-20T23:28:59.647Z,100347.56
2018-09-20T23:32:04.176Z,100345.07
2018-09-20T23:35:08.595Z,100339.05
2018-09-20T23:38:12.595Z,100326.55
2018-09-20T23:41:16.964Z,100322.09
2018-09-20T23:44:21.069Z,100324.83
2018-09-20T23:47:25.155Z,100316.83
2018-09-20T23:50:29.594Z,100308.22
2018-09-20T23:53:34.235Z,100300.91
2018-09-20T23:56:38.303Z,100299.00
2018-09-20T23:59:42.401Z,100290.97
